読者です 読者をやめる 読者になる 読者になる

今朝の成田(2017/05/18)

JJP40/JA13JJ(A320)

ANA832/JA611A(B763)

JJP12/JA21JJ(A320)

VNL100/JA04VA(A30)

AMX058/N967AM(B788)

CPA524/B-HNG(B773)

FDX5391/N859FD(B77L)

ANA818/JA834A(B788)

ANA814/JA626A(B763) with winglet

JAL724/JA865J(B789)

NCA228/JA17KZ(B748)

JAL740/JA845J(B788)

JAL752/JA836J(B788)

CPA006/B-LIA(B744)

NCA049/JA04KZ(B744)

MAS80/9M-MXL(B738)

FDX15/N882FD(B77L)

JAL8122/JA843J(B788)

FDX31/N864FD(B77L)

ALK454/4R-ALM(A333)

JAL726/JA868J(B789)

CRK606/B-LPJ(A320)

MAS88/9M-MTE(A333)

ANA179/JA823A(B788)

*SJO621/JA04GR(B738)

PAC240/N644GT(B763) with winglet

SIA638/9V-SWT(B77W)

HVN310/VN-A869(B789)

TAX600/HS-XTB(A333)

HVN300/VN-A863(B789)

RJAA 172100Z 31004KT 9999 FEW015 SCT040 15/12 Q1013 NOSIG RMK 1CU015 4SC040 A2994

RJAA 172200Z 36007KT 9999 FEW015 17/12 Q1014 NOSIG

今朝の成田は晴れているようです。